Time;durP1;ratioP1;P1;durP2;ratioP2;P2;SDS_P1;SDS_P2;PMS_P1;PMS_P2;Temp;Humidity;BMP_temperature;BMP_pressure;BME280_temperature;BME280_humidity;BME280_pressure;Samples;Min_cycle;Max_cycle;Signal;HPM_P1;HPM_P2
2022/10/27 00:01:50;;;;;;;8.30;4.70;;;15.70;59.40;;;;;;20355;6897;312198;-84
2022/10/27 00:04:15;;;;;;;6.20;4.80;;;15.60;59.30;;;;;;20350;6897;279320;-87
2022/10/27 00:06:41;;;;;;;8.73;4.93;;;15.90;58.10;;;;;;20354;6897;279469;-87
2022/10/27 00:09:06;;;;;;;7.53;5.17;;;16.10;57.30;;;;;;20349;6897;342008;-85
2022/10/27 00:11:32;;;;;;;6.32;5.72;;;16.30;56.70;;;;;;20340;6895;308368;-85
2022/10/27 00:13:58;;;;;;;7.13;5.50;;;16.40;57.20;;;;;;20576;6897;117562;-86
2022/10/27 00:16:23;;;;;;;6.73;5.57;;;16.10;57.70;;;;;;20569;6897;118135;-84
2022/10/27 00:18:49;;;;;;;8.90;5.93;;;15.70;58.60;;;;;;20360;6897;279344;-84
2022/10/27 00:21:14;;;;;;;5.37;4.97;;;15.80;59.20;;;;;;20573;6897;118008;-87
2022/10/27 00:23:40;;;;;;;6.67;5.23;;;15.60;59.20;;;;;;20541;6897;117660;-84
2022/10/27 00:26:05;;;;;;;6.10;5.50;;;15.40;59.90;;;;;;20570;6897;118313;-85
2022/10/27 00:28:31;;;;;;;9.37;6.40;;;15.10;60.40;;;;;;20360;6897;278995;-87
2022/10/27 00:31:04;;;;;;;6.30;5.22;;;15.30;60.60;;;;;;20348;6897;338538;-87
2022/10/27 00:33:29;;;;;;;11.57;4.90;;;15.70;59.60;;;;;;20511;6897;119107;-87
2022/10/27 00:35:55;;;;;;;5.20;4.80;;;15.60;59.50;;;;;;20558;6897;118273;-87
2022/10/27 00:38:20;;;;;;;10.40;6.10;;;15.30;60.10;;;;;;20349;6897;309250;-85
2022/10/27 00:40:46;;;;;;;7.17;6.10;;;15.40;60.70;;;;;;20569;6897;117787;-87
2022/10/27 00:43:28;;;;;;;11.98;7.00;;;15.40;60.60;;;;;;20370;6897;336113;-87
2022/10/27 00:45:54;;;;;;;8.43;6.50;;;15.50;60.90;;;;;;20557;6897;117964;-85
2022/10/27 00:48:19;;;;;;;8.87;6.83;;;15.40;60.90;;;;;;20350;6897;279768;-86
2022/10/27 00:50:45;;;;;;;8.98;6.25;;;15.50;61.00;;;;;;20359;6897;308410;-85
2022/10/27 00:53:10;;;;;;;8.20;6.00;;;15.80;60.40;;;;;;20353;6897;313408;-85
2022/10/27 00:55:37;;;;;;;6.43;5.57;;;16.00;59.80;;;;;;20546;6897;123904;-85
2022/10/27 00:58:02;;;;;;;6.40;5.73;;;15.80;58.90;;;;;;20350;6897;279657;-86
2022/10/27 01:00:28;;;;;;;11.23;6.53;;;15.70;58.70;;;;;;20350;6897;309245;-86
2022/10/27 01:02:53;;;;;;;9.32;5.80;;;15.90;58.30;;;;;;20581;6897;120450;-85
2022/10/27 01:05:20;;;;;;;9.43;5.53;;;15.30;60.00;;;;;;20576;6897;117613;-85
2022/10/27 01:07:45;;;;;;;7.60;5.50;;;15.30;59.30;;;;;;20539;6897;117658;-85
2022/10/27 01:10:11;;;;;;;10.23;5.00;;;15.00;60.00;;;;;;20567;6897;117443;-85
2022/10/27 01:12:36;;;;;;;8.85;5.47;;;14.80;60.70;;;;;;20357;6897;317783;-85
2022/10/27 01:15:02;;;;;;;10.93;5.40;;;14.90;60.70;;;;;;20361;6897;281350;-85
2022/10/27 01:17:48;;;;;;;10.20;5.73;;;15.30;59.80;;;;;;20387;6897;307374;-88
2022/10/27 01:20:36;;;;;;;8.27;5.10;;;15.50;58.40;;;;;;20596;6897;120954;-85
2022/10/27 01:23:22;;;;;;;9.00;5.07;;;15.30;58.30;;;;;;19656;6896;311803;-85
2022/10/27 01:25:57;;;;;;;8.77;4.93;;;15.30;58.30;;;;;;20346;6897;339029;-85
2022/10/27 01:28:50;;;;;;;9.90;4.90;;;15.70;57.50;;;;;;20335;6897;309109;-85
2022/10/27 01:31:35;;;;;;;17.37;5.40;;;15.70;57.10;;;;;;19960;6897;127101;-85
2022/10/27 01:34:04;;;;;;;7.43;5.50;;;15.30;57.50;;;;;;19439;6897;311829;-85
2022/10/27 01:36:29;;;;;;;6.60;4.53;;;15.30;57.00;;;;;;20425;6897;117793;-86
2022/10/27 01:38:55;;;;;;;9.10;4.57;;;15.10;57.50;;;;;;20343;6897;290655;-86
2022/10/27 01:41:21;;;;;;;7.43;5.53;;;15.10;57.50;;;;;;20331;6897;320605;-86
2022/10/27 01:43:47;;;;;;;6.63;5.70;;;15.30;58.00;;;;;;20361;6897;280238;-85
2022/10/27 01:46:12;;;;;;;8.10;6.00;;;15.50;58.30;;;;;;20383;6897;308388;-85
2022/10/27 01:48:38;;;;;;;6.90;5.97;;;15.60;58.20;;;;;;20354;6897;308817;-85
2022/10/27 01:51:05;;;;;;;7.40;5.37;;;15.70;58.10;;;;;;20565;6897;117465;-85
2022/10/27 01:53:30;;;;;;;11.07;5.97;;;15.10;59.30;;;;;;20541;6897;120705;-85
2022/10/27 01:56:02;;;;;;;7.35;6.22;;;15.10;59.30;;;;;;20342;6897;337946;-85
2022/10/27 01:58:48;;;;;;;8.20;6.60;;;15.10;59.90;;;;;;20338;6897;308399;-85
2022/10/27 02:01:20;;;;;;;8.17;6.77;;;15.40;59.20;;;;;;20345;6897;320641;-86
2022/10/27 02:03:48;;;;;;;6.97;5.60;;;15.60;58.90;;;;;;20564;6897;118559;-86
2022/10/27 02:06:20;;;;;;;8.93;5.67;;;15.40;59.20;;;;;;20562;6897;118385;-86
2022/10/27 02:08:59;;;;;;;6.55;5.95;;;15.10;60.30;;;;;;20327;6897;308488;-85
2022/10/27 02:11:25;;;;;;;8.27;5.90;;;15.10;60.30;;;;;;20316;6897;279761;-85
2022/10/27 02:13:51;;;;;;;7.72;6.68;;;15.40;58.90;;;;;;20344;6897;308883;-85
2022/10/27 02:16:20;;;;;;;8.50;5.80;;;15.60;58.00;;;;;;20352;6897;308460;-86
2022/10/27 02:18:52;;;;;;;21.17;5.30;;;15.70;55.60;;;;;;20340;6897;309362;-85
2022/10/27 02:21:19;;;;;;;19.57;4.63;;;15.40;56.10;;;;;;20543;6897;117733;-86
2022/10/27 02:23:44;;;;;;;43.77;5.20;;;15.40;56.10;;;;;;20553;6897;118451;-86
2022/10/27 02:26:13;;;;;;;69.53;6.15;;;14.90;57.00;;;;;;20347;6897;282118;-87
2022/10/27 02:28:59;;;;;;;128.98;8.20;;;14.90;56.30;;;;;;20335;6897;288233;-85
2022/10/27 02:31:28;;;;;;;6.10;5.60;;;15.00;56.30;;;;;;20543;6897;119663;-85
2022/10/27 02:33:53;;;;;;;7.53;6.47;;;14.80;56.80;;;;;;20332;6895;335636;-85
2022/10/27 02:36:20;;;;;;;5.72;5.32;;;14.50;58.30;;;;;;20543;6896;118249;-85
2022/10/27 02:38:45;;;;;;;6.70;5.80;;;14.50;58.30;;;;;;20561;6897;117884;-84
2022/10/27 02:41:11;;;;;;;7.63;5.60;;;14.00;60.60;;;;;;20563;6897;117932;-85
2022/10/27 02:43:38;;;;;;;6.43;5.82;;;14.20;60.80;;;;;;20331;6897;339030;-85
2022/10/27 02:46:03;;;;;;;8.23;5.73;;;14.20;60.70;;;;;;20556;6897;118334;-87
2022/10/27 02:48:30;;;;;;;6.87;5.93;;;14.10;60.90;;;;;;20554;6897;117343;-87
2022/10/27 02:50:55;;;;;;;9.47;5.73;;;14.00;60.90;;;;;;20539;6897;118198;-85
2022/10/27 02:53:21;;;;;;;6.07;5.57;;;13.90;61.30;;;;;;20527;6897;118748;-85
2022/10/27 02:55:46;;;;;;;5.03;4.50;;;13.80;61.70;;;;;;20551;6897;118727;-84
2022/10/27 02:58:13;;;;;;;4.43;4.03;;;13.60;62.00;;;;;;20559;6897;120181;-86
2022/10/27 03:00:39;;;;;;;5.50;3.40;;;13.80;59.00;;;;;;20352;6897;338389;-87
2022/10/27 03:03:05;;;;;;;3.87;3.47;;;13.80;59.00;;;;;;20349;6897;279332;-87
2022/10/27 03:05:30;;;;;;;131.87;6.80;;;14.20;57.90;;;;;;20535;6897;117591;-86
2022/10/27 03:07:56;;;;;;;53.93;4.70;;;14.20;57.80;;;;;;20344;6897;298913;-88
2022/10/27 03:10:22;;;;;;;6.60;3.55;;;14.10;56.70;;;;;;20562;6897;117825;-86
2022/10/27 03:12:48;;;;;;;4.10;3.53;;;14.00;56.60;;;;;;20350;6897;342230;-84
2022/10/27 03:15:13;;;;;;;3.23;3.03;;;14.10;57.40;;;;;;20347;6897;327385;-85
2022/10/27 03:17:43;;;;;;;5.57;3.33;;;14.30;56.90;;;;;;20319;6897;308373;-87
2022/10/27 03:20:09;;;;;;;3.80;3.40;;;14.60;55.60;;;;;;20329;6897;279461;-85
2022/10/27 03:22:38;;;;;;;4.83;3.60;;;14.60;54.90;;;;;;20350;6897;282908;-86
2022/10/27 03:25:04;;;;;;;3.43;3.13;;;14.70;55.20;;;;;;20366;6897;308938;-87
2022/10/27 03:27:29;;;;;;;3.30;3.00;;;14.80;54.80;;;;;;20345;6897;290139;-85
2022/10/27 03:29:55;;;;;;;7.22;3.17;;;14.80;54.80;;;;;;20346;6897;285044;-87
2022/10/27 03:32:20;;;;;;;5.17;3.10;;;14.90;54.30;;;;;;20345;6897;291844;-87
2022/10/27 03:34:46;;;;;;;3.50;3.10;;;14.90;53.90;;;;;;20344;6897;307542;-84
2022/10/27 03:37:12;;;;;;;45.40;4.33;;;14.50;54.40;;;;;;20563;6897;117464;-87
2022/10/27 03:39:38;;;;;;;3.53;3.23;;;14.50;54.40;;;;;;20544;6897;120870;-86
2022/10/27 03:42:03;;;;;;;4.50;4.15;;;14.10;55.30;;;;;;20358;6897;337287;-88
2022/10/27 03:44:29;;;;;;;5.70;4.40;;;14.00;55.10;;;;;;20571;6895;123679;-86
2022/10/27 03:46:54;;;;;;;7.40;6.80;;;13.80;55.40;;;;;;20357;6896;279327;-86
2022/10/27 03:49:21;;;;;;;9.77;7.97;;;13.70;57.10;;;;;;20547;6897;117941;-87
2022/10/27 03:51:46;;;;;;;9.60;8.70;;;13.70;57.10;;;;;;20359;6897;279399;-86
2022/10/27 03:54:12;;;;;;;9.60;9.00;;;13.80;58.00;;;;;;20357;6897;309401;-89
2022/10/27 03:56:37;;;;;;;9.50;8.60;;;14.00;57.70;;;;;;20352;6897;308913;-88
2022/10/27 03:59:03;;;;;;;9.20;8.30;;;14.20;57.30;;;;;;20354;6897;297479;-86
2022/10/27 04:01:29;;;;;;;8.90;8.17;;;14.20;57.40;;;;;;20543;6897;117882;-86
2022/10/27 04:03:55;;;;;;;7.07;4.40;;;14.20;57.40;;;;;;20343;6897;308898;-86
2022/10/27 04:06:20;;;;;;;3.33;3.10;;;14.20;56.50;;;;;;20534;6897;117409;-88
2022/10/27 04:08:46;;;;;;;3.20;3.00;;;14.00;56.60;;;;;;20567;6897;118062;-86
2022/10/27 04:11:12;;;;;;;4.07;3.77;;;13.70;57.30;;;;;;20568;6897;117355;-86
2022/10/27 04:13:39;;;;;;;4.27;3.97;;;13.50;57.90;;;;;;20340;6897;308433;-86
2022/10/27 04:16:03;;;;;;;3.20;2.87;;;13.60;57.30;;;;;;20574;6897;118457;-86
2022/10/27 04:18:29;;;;;;;3.97;2.50;;;13.70;56.10;;;;;;20371;6897;308951;-86
2022/10/27 04:20:55;;;;;;;188.27;6.50;;;13.70;56.10;;;;;;20581;6897;117528;-85
2022/10/27 04:23:21;;;;;;;71.13;5.03;;;13.40;57.50;;;;;;20544;6897;124604;-84
2022/10/27 04:25:47;;;;;;;163.00;8.83;;;13.30;56.80;;;;;;20578;6897;122813;-85
2022/10/27 04:28:14;;;;;;;312.57;10.10;;;13.20;57.60;;;;;;20565;6897;124043;-85
2022/10/27 04:30:38;;;;;;;246.70;8.80;;;13.00;58.20;;;;;;20567;6897;120955;-85
2022/10/27 04:33:03;;;;;;;308.67;9.33;;;12.90;58.60;;;;;;20572;6897;118657;-85
2022/10/27 04:35:29;;;;;;;196.50;7.37;;;12.70;59.10;;;;;;20551;6897;117850;-85
2022/10/27 04:37:55;;;;;;;258.80;8.97;;;12.90;59.30;;;;;;20357;6897;289261;-84
2022/10/27 04:40:21;;;;;;;229.93;7.83;;;12.90;59.20;;;;;;20349;6897;334781;-85
2022/10/27 04:42:48;;;;;;;97.13;5.90;;;13.30;58.50;;;;;;20371;6897;294838;-83
2022/10/27 04:45:14;;;;;;;106.37;6.50;;;13.50;58.10;;;;;;20573;6897;117523;-84
2022/10/27 04:47:40;;;;;;;125.25;6.47;;;13.50;58.10;;;;;;20352;6897;342843;-84
2022/10/27 04:50:06;;;;;;;63.83;5.03;;;13.40;58.10;;;;;;20589;6897;118196;-83
2022/10/27 04:52:32;;;;;;;186.50;6.33;;;13.20;58.70;;;;;;20587;6897;121406;-82
2022/10/27 04:54:58;;;;;;;55.43;5.23;;;13.20;58.70;;;;;;20589;6897;117973;-84
2022/10/27 04:57:24;;;;;;;141.73;6.25;;;13.00;59.30;;;;;;20369;6895;278552;-84
2022/10/27 04:59:49;;;;;;;152.62;6.60;;;13.20;58.70;;;;;;20388;6896;305013;-82
2022/10/27 05:02:15;;;;;;;98.72;5.50;;;13.50;57.70;;;;;;20388;6897;308330;-83
2022/10/27 05:04:40;;;;;;;38.70;4.70;;;13.70;56.70;;;;;;20595;6897;120244;-83
2022/10/27 05:07:07;;;;;;;27.33;6.37;;;13.30;58.00;;;;;;20593;6897;117727;-82
2022/10/27 05:09:32;;;;;;;7.27;3.63;;;13.20;57.80;;;;;;20554;6897;122073;-84
2022/10/27 05:11:58;;;;;;;23.17;3.97;;;13.00;58.70;;;;;;20372;6897;322142;-85
2022/10/27 05:14:23;;;;;;;8.63;3.10;;;13.10;58.20;;;;;;20581;6897;117487;-84
2022/10/27 05:16:49;;;;;;;22.73;3.80;;;13.10;58.30;;;;;;20358;6897;319959;-85
2022/10/27 05:19:14;;;;;;;498.00;13.55;;;13.30;58.30;;;;;;20569;6897;117849;-86
2022/10/27 05:21:40;;;;;;;221.57;10.13;;;13.30;58.30;;;;;;20346;6897;341714;-85
2022/10/27 05:24:06;;;;;;;384.55;11.00;;;13.40;58.20;;;;;;20573;6897;118486;-85
2022/10/27 05:26:31;;;;;;;119.70;7.00;;;13.40;58.30;;;;;;20582;6897;118162;-85
2022/10/27 05:28:57;;;;;;;197.40;8.90;;;13.10;58.70;;;;;;20583;6897;117941;-86
2022/10/27 05:31:22;;;;;;;185.77;9.07;;;12.90;59.30;;;;;;20548;6897;121127;-86
2022/10/27 05:33:48;;;;;;;245.13;8.83;;;12.80;59.90;;;;;;20565;6897;117123;-90
2022/10/27 05:36:14;;;;;;;538.33;14.83;;;12.70;60.30;;;;;;20354;6897;309184;-87
2022/10/27 05:38:39;;;;;;;577.30;15.20;;;12.90;60.20;;;;;;20561;6897;119015;-90
2022/10/27 05:41:05;;;;;;;340.90;11.67;;;13.00;59.90;;;;;;20355;6897;280484;-88
2022/10/27 05:43:31;;;;;;;499.27;15.50;;;13.20;59.40;;;;;;20548;6897;118744;-87
2022/10/27 05:45:57;;;;;;;199.25;9.38;;;13.30;59.90;;;;;;20362;6897;340281;-87
2022/10/27 05:48:23;;;;;;;299.77;11.33;;;13.30;59.90;;;;;;20578;6897;118510;-87
2022/10/27 05:50:52;;;;;;;833.33;20.43;;;13.30;59.90;;;;;;20567;6897;119211;-85
2022/10/27 05:53:18;;;;;;;642.53;18.57;;;13.30;60.10;;;;;;20358;6897;283179;-86
2022/10/27 05:55:44;;;;;;;256.67;11.07;;;13.20;59.90;;;;;;20335;6897;337630;-86
2022/10/27 05:58:09;;;;;;;523.15;15.98;;;13.60;59.00;;;;;;20372;6897;291743;-87
2022/10/27 06:00:35;;;;;;;4.83;2.23;;;13.90;58.50;;;;;;20582;6897;118344;-87
2022/10/27 06:03:00;;;;;;;1134.90;25.93;;;13.80;59.20;;;;;;20352;6897;279132;-89
2022/10/27 06:05:26;;;;;;;338.30;12.37;;;14.00;59.40;;;;;;20560;6897;118987;-87
2022/10/27 06:07:51;;;;;;;431.63;12.63;;;13.90;59.10;;;;;;20358;6895;279014;-87
2022/10/27 06:10:17;;;;;;;669.70;17.15;;;14.00;58.30;;;;;;20360;6896;313469;-89
2022/10/27 06:12:43;;;;;;;339.97;10.10;;;14.30;57.70;;;;;;20378;6897;308777;-90
2022/10/27 06:15:08;;;;;;;369.67;12.80;;;14.60;57.50;;;;;;20625;6897;120386;-94
2022/10/27 06:17:34;;;;;;;70.70;4.73;;;14.60;57.60;;;;;;20388;6897;280908;-88
2022/10/27 06:20:00;;;;;;;98.78;4.80;;;14.80;57.20;;;;;;20352;6897;313382;-90
2022/10/27 06:22:25;;;;;;;259.23;8.30;;;15.20;56.40;;;;;;20356;6897;280103;-90
2022/10/27 06:24:51;;;;;;;87.10;4.57;;;15.50;55.50;;;;;;20561;6897;118225;-88
2022/10/27 06:27:16;;;;;;;73.95;4.47;;;15.40;55.50;;;;;;20351;6897;342301;-88
2022/10/27 06:29:42;;;;;;;101.18;4.95;;;15.60;55.10;;;;;;20543;6897;118758;-88
2022/10/27 06:32:07;;;;;;;122.15;5.20;;;15.50;55.30;;;;;;20351;6897;342728;-92
2022/10/27 06:34:33;;;;;;;54.83;3.80;;;15.60;54.80;;;;;;20355;6897;279777;-89
2022/10/27 06:36:59;;;;;;;46.80;3.53;;;15.90;54.20;;;;;;20566;6897;121819;-87
2022/10/27 06:39:24;;;;;;;89.90;4.80;;;15.90;54.50;;;;;;20340;6897;278941;-88
2022/10/27 06:41:50;;;;;;;61.27;4.17;;;16.00;54.00;;;;;;20347;6897;308368;-89
2022/10/27 06:44:15;;;;;;;65.43;4.53;;;16.20;53.30;;;;;;20561;6897;120741;-86
2022/10/27 06:46:41;;;;;;;413.80;12.73;;;16.10;53.60;;;;;;20561;6897;123733;-87
2022/10/27 06:49:06;;;;;;;32.27;3.30;;;15.80;54.10;;;;;;20352;6897;309154;-91
2022/10/27 06:51:32;;;;;;;29.97;3.43;;;15.90;53.90;;;;;;20547;6897;147739;-86
2022/10/27 06:53:58;;;;;;;78.67;4.33;;;15.90;54.20;;;;;;20361;6897;279283;-87
2022/10/27 06:56:25;;;;;;;20.87;3.27;;;16.30;53.00;;;;;;20364;6897;308052;-86
2022/10/27 06:58:50;;;;;;;29.90;3.65;;;16.30;53.00;;;;;;20357;6897;341181;-86
2022/10/27 07:01:16;;;;;;;43.47;3.33;;;16.60;52.40;;;;;;20356;6897;307952;-88
2022/10/27 07:03:42;;;;;;;47.33;4.03;;;16.70;51.90;;;;;;20549;6897;118795;-91
2022/10/27 07:06:08;;;;;;;4.60;2.30;;;16.60;52.30;;;;;;20561;6897;118793;-93
2022/10/27 07:08:34;;;;;;;9.50;2.53;;;16.30;52.90;;;;;;20522;6897;117360;-91
2022/10/27 07:11:00;;;;;;;30.70;3.33;;;16.00;53.50;;;;;;20563;6897;119284;-92
2022/10/27 07:13:25;;;;;;;20.97;2.73;;;15.80;53.80;;;;;;20287;6897;338276;-86
2022/10/27 07:15:51;;;;;;;10.05;2.70;;;16.00;53.40;;;;;;20344;6897;281887;-89
2022/10/27 07:18:16;;;;;;;7.97;2.80;;;16.30;52.80;;;;;;20309;6897;338499;-86
2022/10/27 07:20:42;;;;;;;41.75;3.47;;;16.70;51.90;;;;;;20351;6895;322809;-90
2022/10/27 07:23:07;;;;;;;25.07;2.90;;;16.90;51.30;;;;;;20345;6896;309473;-88
2022/10/27 07:25:33;;;;;;;39.03;3.93;;;17.00;50.80;;;;;;20542;6897;127557;-87
2022/10/27 07:28:00;;;;;;;260.00;7.97;;;16.90;51.40;;;;;;20349;6897;341222;-90
2022/10/27 07:30:25;;;;;;;6.18;2.28;;;16.70;51.50;;;;;;20565;6897;123781;-87
2022/10/27 07:32:51;;;;;;;15.23;3.03;;;16.70;51.50;;;;;;20562;6897;117962;-90
2022/10/27 07:35:17;;;;;;;52.87;3.97;;;16.50;52.20;;;;;;20359;6897;288426;-86
2022/10/27 07:37:43;;;;;;;6.50;2.50;;;16.60;51.90;;;;;;20550;6897;117907;-90
2022/10/27 07:40:09;;;;;;;6.67;2.63;;;16.60;52.20;;;;;;20567;6897;117508;-87
2022/10/27 07:42:44;;;;;;;331.57;11.30;;;16.40;53.30;;;;;;20351;6897;307009;-88
2022/10/27 07:45:10;;;;;;;19.90;3.00;;;16.60;52.20;;;;;;20558;6897;118088;-87
2022/10/27 07:47:35;;;;;;;5.62;3.00;;;16.60;52.50;;;;;;20337;6897;279357;-92
2022/10/27 07:50:01;;;;;;;125.13;5.83;;;16.80;52.20;;;;;;20361;6897;280141;-87
2022/10/27 07:52:27;;;;;;;46.50;4.67;;;17.10;51.50;;;;;;20565;6897;118014;-87
2022/10/27 07:54:52;;;;;;;7.30;3.30;;;17.00;51.60;;;;;;20361;6897;278579;-90
2022/10/27 07:57:19;;;;;;;64.95;4.45;;;17.10;51.40;;;;;;20349;6897;308498;-91
2022/10/27 07:59:45;;;;;;;37.47;4.70;;;17.30;51.00;;;;;;20536;6897;124046;-89
2022/10/27 08:02:10;;;;;;;32.97;3.77;;;17.20;51.20;;;;;;20561;6897;117663;-89
2022/10/27 08:04:37;;;;;;;3.83;3.10;;;17.10;52.20;;;;;;20345;6897;311427;-89
2022/10/27 08:07:02;;;;;;;3.00;2.90;;;17.10;52.00;;;;;;20556;6897;117802;-88
2022/10/27 08:09:28;;;;;;;3.30;3.10;;;17.20;52.50;;;;;;20334;6897;290033;-88
2022/10/27 08:11:53;;;;;;;3.12;2.92;;;17.40;52.40;;;;;;20344;6897;331763;-89
2022/10/27 08:14:19;;;;;;;2.70;2.60;;;17.80;52.20;;;;;;20347;6897;279561;-86
2022/10/27 08:16:45;;;;;;;3.95;3.05;;;18.20;51.90;;;;;;20355;6897;312755;-89
2022/10/27 08:19:10;;;;;;;2.60;2.37;;;18.50;51.60;;;;;;20554;6897;123005;-88
2022/10/27 08:21:36;;;;;;;3.00;2.80;;;18.50;52.00;;;;;;20346;6897;308580;-87
2022/10/27 08:24:01;;;;;;;3.05;2.85;;;18.60;51.80;;;;;;20358;6897;308440;-89
2022/10/27 08:26:27;;;;;;;3.40;2.70;;;18.90;51.30;;;;;;20362;6897;280745;-87
2022/10/27 08:28:52;;;;;;;2.55;2.45;;;19.20;51.30;;;;;;20357;6897;331736;-87
2022/10/27 08:31:18;;;;;;;2.63;2.53;;;19.50;51.00;;;;;;20362;6895;280290;-87
2022/10/27 08:33:44;;;;;;;2.80;2.60;;;19.60;50.70;;;;;;20339;6896;338859;-91
2022/10/27 08:36:10;;;;;;;2.70;2.60;;;19.70;50.70;;;;;;20568;6897;118733;-91
2022/10/27 08:38:37;;;;;;;2.63;2.47;;;19.70;50.70;;;;;;20566;6897;123391;-86
2022/10/27 08:41:19;;;;;;;2.67;2.57;;;19.30;51.90;;;;;;20560;6897;118520;-87
2022/10/27 08:44:07;;;;;;;2.73;2.63;;;19.30;51.90;;;;;;20538;6897;121156;-90
2022/10/27 08:46:53;;;;;;;2.75;2.60;;;19.40;51.80;;;;;;20344;6897;309880;-87
2022/10/27 08:49:39;;;;;;;2.83;2.63;;;19.40;51.80;;;;;;20556;6897;118459;-87
2022/10/27 08:52:08;;;;;;;2.97;2.78;;;19.50;52.00;;;;;;20350;6897;313143;-87
2022/10/27 08:54:34;;;;;;;2.83;2.73;;;19.70;51.70;;;;;;20549;6897;117556;-86
2022/10/27 08:57:00;;;;;;;5.40;2.80;;;19.70;51.30;;;;;;20351;6897;279468;-90
2022/10/27 08:59:26;;;;;;;3.12;3.00;;;19.90;51.00;;;;;;20331;6897;309320;-86
2022/10/27 09:02:00;;;;;;;5.40;2.90;;;20.10;50.60;;;;;;20558;6897;123572;-86
2022/10/27 09:04:26;;;;;;;5.23;2.90;;;20.10;50.90;;;;;;20549;6897;118275;-86
2022/10/27 09:06:57;;;;;;;3.10;2.90;;;20.00;51.50;;;;;;20542;6897;118537;-89
2022/10/27 09:09:26;;;;;;;2.97;2.77;;;19.80;51.90;;;;;;20334;6897;312296;-90
2022/10/27 09:12:15;;;;;;;3.03;2.90;;;20.00;51.80;;;;;;20326;6897;308853;-87
2022/10/27 09:15:10;;;;;;;3.00;2.78;;;20.30;51.90;;;;;;20354;6897;342568;-86
2022/10/27 09:18:02;;;;;;;3.53;3.10;;;20.60;50.80;;;;;;20548;6897;118656;-88
2022/10/27 09:20:28;;;;;;;3.12;2.92;;;20.60;51.20;;;;;;20144;6897;309066;-85
2022/10/27 09:22:53;;;;;;;3.67;2.93;;;20.70;51.20;;;;;;20354;6897;278829;-84
2022/10/27 09:25:19;;;;;;;3.40;3.10;;;20.90;51.20;;;;;;20367;6897;308121;-87
2022/10/27 09:27:44;;;;;;;3.40;3.20;;;21.10;50.70;;;;;;20339;6897;279098;-87
2022/10/27 09:30:10;;;;;;;3.67;2.93;;;21.40;50.60;;;;;;20571;6897;120849;-85
2022/10/27 09:32:36;;;;;;;3.83;2.93;;;21.30;50.90;;;;;;20344;6897;312774;-85
2022/10/27 09:35:11;;;;;;;2.77;2.63;;;21.30;51.20;;;;;;20555;6897;117383;-84
2022/10/27 09:37:39;;;;;;;3.37;3.10;;;21.30;51.70;;;;;;20255;6897;332621;-86
2022/10/27 09:40:03;;;;;;;4.63;3.33;;;21.40;51.60;;;;;;20557;6897;117833;-90
2022/10/27 09:42:29;;;;;;;5.67;3.10;;;21.30;52.20;;;;;;20561;6895;117850;-86
2022/10/27 09:44:56;;;;;;;2.80;2.60;;;21.30;52.20;;;;;;20572;6896;117587;-87
2022/10/27 09:47:21;;;;;;;2.63;2.43;;;21.20;52.50;;;;;;20499;6897;123224;-87
2022/10/27 09:49:47;;;;;;;3.40;3.10;;;21.10;52.60;;;;;;20349;6897;282465;-86
2022/10/27 09:52:22;;;;;;;4.37;3.07;;;21.30;51.70;;;;;;20562;6897;117309;-91
2022/10/27 09:54:51;;;;;;;3.00;2.80;;;21.50;52.00;;;;;;20335;6897;311351;-87
2022/10/27 09:57:18;;;;;;;2.87;2.67;;;21.70;51.50;;;;;;20559;6897;117936;-88
2022/10/27 09:59:51;;;;;;;5.30;2.90;;;21.80;51.70;;;;;;20542;6897;119474;-92
2022/10/27 10:02:23;;;;;;;3.63;2.70;;;21.70;52.20;;;;;;20558;6897;117949;-86
2022/10/27 10:04:49;;;;;;;5.90;2.95;;;21.70;52.20;;;;;;20319;6897;279253;-87
2022/10/27 10:07:38;;;;;;;2.83;2.62;;;21.90;50.40;;;;;;20569;6897;117942;-86
2022/10/27 10:10:13;;;;;;;2.77;2.57;;;22.00;50.60;;;;;;20568;6897;123608;-87
2022/10/27 10:12:39;;;;;;;4.57;3.50;;;21.90;50.80;;;;;;20566;6897;118008;-88
2022/10/27 10:15:11;;;;;;;6.73;2.80;;;21.90;51.30;;;;;;20571;6897;117705;-90
2022/10/27 10:17:50;;;;;;;4.57;2.77;;;21.80;51.40;;;;;;20525;6897;117694;-88
2022/10/27 10:20:22;;;;;;;4.97;2.83;;;21.80;51.50;;;;;;20341;6897;337926;-86
2022/10/27 10:22:48;;;;;;;5.60;2.93;;;22.10;51.10;;;;;;20297;6897;308401;-86
2022/10/27 10:25:14;;;;;;;3.40;3.10;;;22.40;49.60;;;;;;20331;6897;319389;-87
2022/10/27 10:27:39;;;;;;;3.70;2.87;;;22.70;48.50;;;;;;20523;6897;120134;-92
2022/10/27 10:30:05;;;;;;;4.47;3.20;;;22.80;49.10;;;;;;20345;6897;308201;-85
2022/10/27 10:32:34;;;;;;;2.97;2.77;;;22.90;48.70;;;;;;20544;6897;120209;-86
2022/10/27 10:34:59;;;;;;;5.47;3.00;;;22.90;49.10;;;;;;20355;6897;309578;-85
2022/10/27 10:37:30;;;;;;;3.70;3.00;;;23.00;47.20;;;;;;20327;6897;308557;-86
2022/10/27 10:39:55;;;;;;;4.47;2.92;;;23.20;46.20;;;;;;20365;6897;280390;-85
2022/10/27 10:42:20;;;;;;;3.62;2.60;;;23.40;45.40;;;;;;20184;6897;121016;-84
2022/10/27 10:44:48;;;;;;;3.03;2.65;;;23.40;46.10;;;;;;20377;6897;290494;-87
2022/10/27 10:47:27;;;;;;;5.70;3.13;;;23.40;45.20;;;;;;20320;6897;308401;-84
2022/10/27 10:49:57;;;;;;;4.63;3.17;;;23.60;45.00;;;;;;20370;6897;308819;-84
2022/10/27 10:52:22;;;;;;;3.80;2.53;;;23.80;46.00;;;;;;20562;6897;117804;-84
2022/10/27 10:54:48;;;;;;;4.90;3.00;;;23.70;46.50;;;;;;20346;6895;306213;-84
2022/10/27 10:57:20;;;;;;;4.63;2.73;;;23.70;46.00;;;;;;20387;6896;279432;-84
2022/10/27 10:59:46;;;;;;;2.80;2.50;;;23.80;45.40;;;;;;20574;6897;118331;-87
2022/10/27 11:02:22;;;;;;;5.37;2.90;;;23.80;45.80;;;;;;20367;6897;308878;-85
2022/10/27 11:04:47;;;;;;;4.17;3.03;;;23.80;46.10;;;;;;20296;6897;278365;-85
2022/10/27 11:07:21;;;;;;;4.47;2.87;;;23.90;45.80;;;;;;20582;6897;117398;-85
2022/10/27 11:10:17;;;;;;;4.60;2.63;;;23.90;46.20;;;;;;20587;6897;118316;-85
2022/10/27 11:12:44;;;;;;;4.97;3.13;;;23.60;46.90;;;;;;20386;6897;281952;-86
2022/10/27 11:15:36;;;;;;;4.50;2.93;;;23.70;46.60;;;;;;20385;6897;306903;-85
2022/10/27 11:18:22;;;;;;;7.27;3.10;;;23.90;45.80;;;;;;20601;6897;118029;-85
2022/10/27 11:20:47;;;;;;;4.00;3.00;;;23.70;46.40;;;;;;20363;6897;294411;-85
2022/10/27 11:23:33;;;;;;;6.85;3.10;;;23.80;46.40;;;;;;20384;6897;279761;-86
2022/10/27 11:25:59;;;;;;;6.07;3.00;;;24.00;45.40;;;;;;20594;6897;118569;-85
2022/10/27 11:29:04;;;;;;;5.35;3.00;;;23.90;45.90;;;;;;20351;6897;312722;-88
2022/10/27 11:31:43;;;;;;;4.95;2.87;;;23.90;45.80;;;;;;20337;6897;311518;-90
2022/10/27 11:34:29;;;;;;;3.70;2.80;;;24.30;45.10;;;;;;20349;6897;298260;-89
2022/10/27 11:36:57;;;;;;;3.27;2.83;;;24.20;45.70;;;;;;20565;6897;120946;-89
2022/10/27 11:39:26;;;;;;;5.53;2.77;;;24.20;45.70;;;;;;20544;6897;117719;-90
2022/10/27 11:42:04;;;;;;;4.37;2.60;;;23.90;46.10;;;;;;20554;6897;117550;-89
2022/10/27 11:44:36;;;;;;;4.83;3.00;;;23.60;46.60;;;;;;19751;6897;307727;-87
2022/10/27 11:47:11;;;;;;;7.57;3.10;;;23.70;46.20;;;;;;20564;6897;121017;-89
2022/10/27 11:49:40;;;;;;;5.20;3.23;;;23.50;47.10;;;;;;20540;6897;117760;-93
2022/10/27 11:52:16;;;;;;;7.77;3.03;;;23.50;46.80;;;;;;20575;6897;117592;-87
2022/10/27 11:54:42;;;;;;;5.63;3.00;;;23.40;47.40;;;;;;20559;6897;117769;-87
2022/10/27 11:57:21;;;;;;;3.40;2.70;;;23.30;47.80;;;;;;20364;6897;308429;-85
2022/10/27 12:00:16;;;;;;;4.47;2.70;;;23.50;46.70;;;;;;20348;6897;309456;-85
2022/10/27 12:03:08;;;;;;;2.57;2.37;;;23.90;45.70;;;;;;20553;6897;117688;-84
2022/10/27 12:05:43;;;;;;;4.27;2.70;;;23.90;46.40;;;;;;20547;6895;118484;-85
2022/10/27 12:08:35;;;;;;;2.67;2.40;;;23.70;47.60;;;;;;20552;6896;117262;-86
2022/10/27 12:11:17;;;;;;;4.03;2.77;;;23.50;47.50;;;;;;20561;6897;117297;-85
2022/10/27 12:13:42;;;;;;;6.15;2.80;;;23.40;48.10;;;;;;20332;6897;312897;-85
2022/10/27 12:16:14;;;;;;;6.70;2.73;;;23.60;47.80;;;;;;20572;6897;117831;-85
2022/10/27 12:18:56;;;;;;;5.50;2.60;;;23.70;47.80;;;;;;20563;6897;117299;-85
2022/10/27 12:21:22;;;;;;;7.03;2.90;;;23.70;47.90;;;;;;20328;6897;282278;-90
2022/10/27 12:24:08;;;;;;;3.50;2.80;;;23.90;46.20;;;;;;20357;6897;337192;-85
2022/10/27 12:26:36;;;;;;;4.60;2.90;;;24.20;46.10;;;;;;20559;6897;124422;-89
2022/10/27 12:29:02;;;;;;;2.70;2.50;;;24.20;46.60;;;;;;20552;6897;118929;-84
2022/10/27 12:31:28;;;;;;;3.90;2.77;;;24.10;45.90;;;;;;20326;6897;308426;-85
2022/10/27 12:34:00;;;;;;;5.63;2.50;;;24.10;45.90;;;;;;20562;6897;118743;-87
2022/10/27 12:36:32;;;;;;;5.73;2.90;;;24.20;46.30;;;;;;20554;6897;117885;-87
2022/10/27 12:39:11;;;;;;;5.63;2.40;;;24.00;46.60;;;;;;20541;6897;117361;-87